FMSD

Tôlanaro Airport

Airport
ICAO code
FMSD
IATA Code
FTU
Summary
ICAO Region
AFI
ICAO Territory
Location

Tôlanaro, Anosy Region

Serving
Tôlanaro
Elevation
20 ft
Coordinates
25° 2' 17" S , 46° 57' 21" E
KCC
Metar
FMSD 191400Z 08012KT 9999 FEW020 24/20 Q1016

Tôlanaro Airport (also known as Marillac Airport) is an airport in Tôlanaro, Anosy Region, Madagascar

Climatology

Tropical monsoon climate (Köppen climate classification Am)

Runways

Designator Length Width Surface Rops
8/26 1498 30 ASP No/No

Airport map

Aerial View

SKYbrary Partners:

Safety knowledge contributed by: